createdAt,value
2022-08-19T00:02:01.546Z,1475.65
2022-08-19T00:04:32.361Z,1307.10
2022-08-19T00:07:00.471Z,1497.55
2022-08-19T00:09:27.622Z,1320.70
2022-08-19T00:11:59.454Z,1471.90
2022-08-19T00:14:27.631Z,1398.05
2022-08-19T00:16:55.469Z,1357.53
2022-08-19T00:19:22.677Z,1370.53
2022-08-19T00:21:49.197Z,1344.22
2022-08-19T00:24:18.654Z,1331.15
2022-08-19T00:26:46.408Z,1481.72
2022-08-19T00:29:15.239Z,1415.57
2022-08-19T00:31:42.808Z,1237.20
2022-08-19T00:34:09.608Z,1430.03
2022-08-19T00:36:36.172Z,1393.57
2022-08-19T00:39:04.815Z,1421.72
2022-08-19T00:41:31.231Z,1301.63
2022-08-19T00:44:06.628Z,1303.10
2022-08-19T00:46:34.457Z,1394.28
2022-08-19T00:49:01.907Z,1382.07
2022-08-19T00:51:30.447Z,1333.50
2022-08-19T00:53:57.996Z,1456.22
2022-08-19T00:56:24.760Z,1338.93
2022-08-19T00:58:51.270Z,1362.15
2022-08-19T01:01:17.712Z,1326.78
2022-08-19T01:03:58.098Z,1459.63
2022-08-19T01:06:25.502Z,1406.25
2022-08-19T01:08:52.083Z,1307.65
2022-08-19T01:11:18.553Z,1361.60
2022-08-19T01:13:50.076Z,1310.03
2022-08-19T01:16:19.244Z,1313.10
2022-08-19T01:18:45.776Z,1419.85
2022-08-19T01:21:16.273Z,1347.13
2022-08-19T01:23:43.941Z,1380.05
2022-08-19T01:26:14.449Z,1318.28
2022-08-19T01:28:42.442Z,1304.50
2022-08-19T01:31:12.452Z,1370.25
2022-08-19T01:33:54.989Z,1307.50
2022-08-19T01:36:27.914Z,1276.13
2022-08-19T01:38:55.105Z,1403.68
2022-08-19T01:41:24.097Z,1277.82
2022-08-19T01:44:13.905Z,1281.82
2022-08-19T01:46:38.199Z,1442.85
2022-08-19T01:49:13.256Z,1217.35
2022-08-19T01:51:40.565Z,1348.90
2022-08-19T01:54:10.834Z,1228.03
2022-08-19T01:56:37.627Z,1231.97
2022-08-19T01:59:05.572Z,1456.45
2022-08-19T02:01:35.774Z,1222.03
2022-08-19T02:04:02.411Z,1331.65
2022-08-19T02:06:28.931Z,1270.97
2022-08-19T02:08:57.213Z,1280.93
2022-08-19T02:11:27.463Z,1236.82
2022-08-19T02:13:55.230Z,1231.32
2022-08-19T02:16:21.874Z,1267.55
2022-08-19T02:18:51.535Z,1282.13
2022-08-19T02:21:19.559Z,1364.82
2022-08-19T02:23:46.038Z,1291.72
2022-08-19T02:26:13.393Z,1343.72
2022-08-19T02:28:41.523Z,1256.85
2022-08-19T02:31:12.570Z,1198.03
2022-08-19T02:33:40.037Z,1206.32
2022-08-19T02:36:07.395Z,1297.82
2022-08-19T02:38:34.226Z,1210.88
2022-08-19T02:41:02.303Z,1275.45
2022-08-19T02:43:32.242Z,1273.30
2022-08-19T02:46:01.335Z,1208.00
2022-08-19T02:48:27.845Z,1167.05
2022-08-19T02:50:56.653Z,1201.60
2022-08-19T02:53:32.506Z,1355.57
2022-08-19T02:55:58.998Z,1327.57
2022-08-19T02:58:29.658Z,1317.32
2022-08-19T03:00:57.457Z,1295.65
2022-08-19T03:03:24.442Z,1324.65
2022-08-19T03:05:56.482Z,1318.05
2022-08-19T03:08:25.324Z,1260.97
2022-08-19T03:10:53.044Z,1292.75
2022-08-19T03:13:19.472Z,1251.60
2022-08-19T03:15:47.403Z,1199.10
2022-08-19T03:18:14.424Z,1298.60
2022-08-19T03:20:44.608Z,1262.57
2022-08-19T03:23:11.630Z,1263.78
2022-08-19T03:25:44.021Z,1219.35
2022-08-19T03:28:11.765Z,1307.32
2022-08-19T03:30:38.242Z,1409.15
2022-08-19T03:33:09.443Z,1343.38
2022-08-19T03:35:39.114Z,1298.40
2022-08-19T03:38:06.603Z,1203.45
2022-08-19T03:40:35.903Z,1353.57
2022-08-19T03:43:02.409Z,1290.95
2022-08-19T03:45:29.902Z,1287.68
2022-08-19T03:47:56.766Z,1285.75
2022-08-19T03:50:23.189Z,1302.18
2022-08-19T03:52:53.355Z,1166.35
2022-08-19T03:55:20.016Z,1314.03
2022-08-19T03:57:46.881Z,1161.00
2022-08-19T04:00:14.213Z,1203.53
2022-08-19T04:02:58.266Z,1231.80
2022-08-19T04:05:29.443Z,1286.10
2022-08-19T04:07:59.972Z,1152.55
2022-08-19T04:10:26.938Z,1170.05
2022-08-19T04:12:54.021Z,1299.05
2022-08-19T04:15:21.280Z,1175.50
2022-08-19T04:17:47.972Z,1225.22
2022-08-19T04:20:14.438Z,1180.78
2022-08-19T04:22:40.879Z,1313.47
2022-08-19T04:25:07.425Z,1402.68
2022-08-19T04:27:34.355Z,1386.90
2022-08-19T04:30:00.788Z,1190.95
2022-08-19T04:32:27.293Z,1250.15
2022-08-19T04:35:01.393Z,1379.05
2022-08-19T04:37:42.379Z,1588.20
2022-08-19T04:40:35.198Z,1224.65
2022-08-19T04:43:02.081Z,1126.80
2022-08-19T04:45:28.535Z,1476.40
2022-08-19T04:48:27.386Z,1344.35
2022-08-19T04:51:00.094Z,1227.35
2022-08-19T04:53:37.664Z,1191.75
2022-08-19T04:56:13.069Z,1250.95
2022-08-19T04:58:42.560Z,1216.13
2022-08-19T05:01:12.018Z,1302.88
2022-08-19T05:03:39.169Z,1262.32
2022-08-19T05:06:12.934Z,1239.32
2022-08-19T05:08:44.650Z,1254.55
2022-08-19T05:11:27.368Z,1223.93
2022-08-19T05:13:53.813Z,1281.35
2022-08-19T05:16:21.540Z,1188.25
2022-08-19T05:19:07.353Z,1205.85
2022-08-19T05:21:52.756Z,1149.68
2022-08-19T05:24:21.824Z,1327.18
2022-08-19T05:26:49.278Z,1241.53
2022-08-19T05:29:17.391Z,1361.50
2022-08-19T05:31:44.494Z,1217.70
2022-08-19T05:34:20.071Z,1370.00
2022-08-19T05:36:47.190Z,1227.07
2022-08-19T05:39:16.829Z,1308.47
2022-08-19T05:41:44.301Z,1357.60
2022-08-19T05:44:12.158Z,1201.22
2022-08-19T05:46:39.098Z,1352.25
2022-08-19T05:49:09.125Z,1242.07
2022-08-19T05:51:36.816Z,1384.55
2022-08-19T05:54:03.808Z,1225.75
2022-08-19T05:56:31.678Z,1452.18
2022-08-19T05:58:59.551Z,1375.13
2022-08-19T06:01:26.379Z,1281.75
2022-08-19T06:03:54.703Z,1325.63
2022-08-19T06:06:21.501Z,1226.30
2022-08-19T06:08:51.541Z,1357.28
2022-08-19T06:11:22.214Z,1342.60
2022-08-19T06:13:59.393Z,1410.65
2022-08-19T06:16:26.868Z,1121.30
2022-08-19T06:18:53.831Z,1230.57
2022-08-19T06:21:26.593Z,1471.43
2022-08-19T06:23:53.566Z,1310.55
2022-08-19T06:26:20.659Z,1312.47
2022-08-19T06:28:48.151Z,1211.57
2022-08-19T06:31:18.830Z,1482.22
2022-08-19T06:33:45.880Z,1442.80
2022-08-19T06:36:19.739Z,1396.63
2022-08-19T06:38:46.311Z,1211.65
2022-08-19T06:41:14.323Z,1286.45
2022-08-19T06:43:42.571Z,1430.63
2022-08-19T06:46:12.507Z,1257.22
2022-08-19T06:48:45.816Z,1417.40
2022-08-19T06:51:12.866Z,1348.10
2022-08-19T06:53:40.543Z,1245.70
2022-08-19T06:56:07.099Z,1429.22
2022-08-19T06:58:33.530Z,1262.20
2022-08-19T07:01:04.443Z,1386.15
2022-08-19T07:03:34.485Z,1297.28
2022-08-19T07:06:07.201Z,1365.07
2022-08-19T07:11:10.862Z,1285.28
2022-08-19T07:13:38.326Z,1374.35
2022-08-19T07:16:06.198Z,1402.40
2022-08-19T07:18:34.031Z,1293.10
2022-08-19T07:21:13.511Z,1421.68
2022-08-19T07:23:40.485Z,1290.20
2022-08-19T07:26:09.454Z,1262.43
2022-08-19T07:28:40.053Z,1313.07
2022-08-19T07:31:23.071Z,1367.57
2022-08-19T07:33:53.314Z,1418.15
2022-08-19T07:36:22.541Z,1409.43
2022-08-19T07:38:52.383Z,1320.63
2022-08-19T07:41:22.861Z,1338.53
2022-08-19T07:43:50.197Z,1463.95
2022-08-19T07:46:24.438Z,1411.40
2022-08-19T07:48:51.251Z,1251.50
2022-08-19T07:51:35.905Z,1363.63
2022-08-19T07:54:04.057Z,1321.13
2022-08-19T07:56:30.495Z,1481.97
2022-08-19T08:01:28.853Z,1452.20
2022-08-19T08:04:16.854Z,1389.63
2022-08-19T08:07:02.163Z,1344.15
2022-08-19T08:09:39.288Z,1394.40
2022-08-19T08:12:32.947Z,1304.55
2022-08-19T08:14:58.998Z,1352.03
2022-08-19T08:17:31.159Z,1415.40
2022-08-19T08:20:13.937Z,1279.57
2022-08-19T08:23:02.993Z,1469.55
2022-08-19T08:25:38.819Z,1500.50
2022-08-19T08:28:05.758Z,1396.40
2022-08-19T08:30:34.202Z,1405.35
2022-08-19T08:33:00.877Z,1443.20
2022-08-19T08:35:29.312Z,1456.28
2022-08-19T08:37:57.699Z,1448.93
2022-08-19T08:40:42.759Z,1487.57
2022-08-19T08:43:12.417Z,1389.45
2022-08-19T08:45:53.597Z,1369.72
2022-08-19T08:48:36.804Z,1339.38
2022-08-19T08:51:07.529Z,1383.10
2022-08-19T08:53:40.495Z,1418.40
2022-08-19T08:56:13.987Z,1435.15
2022-08-19T08:58:57.559Z,1311.90
2022-08-19T09:01:30.260Z,1331.28
2022-08-19T09:03:57.676Z,1490.85
2022-08-19T09:06:40.881Z,1518.73
2022-08-19T09:09:24.605Z,1425.00
2022-08-19T09:12:14.791Z,1330.78
2022-08-19T09:14:51.557Z,1312.88
2022-08-19T09:17:19.856Z,1367.05
2022-08-19T09:19:54.815Z,1455.35
2022-08-19T09:22:26.073Z,1423.93
2022-08-19T09:24:54.233Z,1435.72
2022-08-19T09:27:21.871Z,1342.50
2022-08-19T09:30:09.944Z,1329.68
2022-08-19T09:32:36.423Z,1421.75
2022-08-19T09:35:03.561Z,1375.63
2022-08-19T09:37:35.715Z,1383.97
2022-08-19T09:40:05.455Z,1373.82
2022-08-19T09:42:35.360Z,1348.45
2022-08-19T09:45:02.236Z,1361.47
2022-08-19T09:47:31.667Z,1419.32
2022-08-19T09:49:59.025Z,1282.30
2022-08-19T09:52:25.807Z,1397.45
2022-08-19T09:54:59.513Z,1612.55
2022-08-19T09:57:26.035Z,1504.15
2022-08-19T09:59:52.523Z,1373.13
2022-08-19T10:02:23.645Z,1452.07
2022-08-19T10:05:14.336Z,1569.35
2022-08-19T10:07:56.767Z,1488.85
2022-08-19T10:10:23.394Z,1532.70
2022-08-19T10:12:53.025Z,1427.35
2022-08-19T10:15:28.848Z,1488.90
2022-08-19T10:17:59.847Z,1538.07
2022-08-19T10:20:27.331Z,1529.57
2022-08-19T10:22:53.782Z,1522.43
2022-08-19T10:25:20.209Z,1468.63
2022-08-19T10:27:48.397Z,1498.38
2022-08-19T10:30:18.147Z,1623.55
2022-08-19T10:32:46.934Z,1521.80
2022-08-19T10:35:14.030Z,1417.18
2022-08-19T10:37:57.270Z,1536.35
2022-08-19T10:40:24.683Z,1346.30
2022-08-19T10:42:55.097Z,1411.50
2022-08-19T10:45:28.148Z,1565.32
2022-08-19T10:47:55.005Z,1570.13
2022-08-19T10:50:41.362Z,1495.18
2022-08-19T10:53:12.944Z,1532.40
2022-08-19T10:55:58.106Z,1420.18
2022-08-19T10:58:26.322Z,1455.32
2022-08-19T11:00:54.336Z,1444.93
2022-08-19T11:03:21.228Z,1441.38
2022-08-19T11:05:49.903Z,1453.82
2022-08-19T11:08:22.664Z,1498.43
2022-08-19T11:10:51.001Z,1399.45
2022-08-19T11:13:17.586Z,1378.45
2022-08-19T11:15:44.139Z,1355.63
2022-08-19T11:18:13.528Z,1580.30
2022-08-19T11:20:47.319Z,1504.00
2022-08-19T11:23:13.817Z,1484.38
2022-08-19T11:25:40.341Z,1471.88
2022-08-19T11:28:06.770Z,1479.70
2022-08-19T11:30:34.215Z,1455.70
2022-08-19T11:33:01.948Z,1439.15
2022-08-19T11:35:29.176Z,1390.82
2022-08-19T11:37:57.025Z,1244.95
2022-08-19T11:40:23.629Z,1440.22
2022-08-19T11:42:56.779Z,1255.90
2022-08-19T11:45:24.219Z,1551.68
2022-08-19T11:47:53.540Z,1517.18
2022-08-19T11:50:20.214Z,1407.72
2022-08-19T11:52:46.830Z,1593.53
2022-08-19T11:55:14.136Z,1559.22
2022-08-19T11:57:42.173Z,1434.60
2022-08-19T12:00:10.528Z,1398.82
2022-08-19T12:02:37.400Z,1394.65
2022-08-19T12:05:06.943Z,1526.35
2022-08-19T12:07:36.020Z,1568.28
2022-08-19T12:10:02.971Z,1405.85
2022-08-19T12:12:30.339Z,1425.72
2022-08-19T12:15:02.909Z,1362.22
2022-08-19T12:17:29.689Z,1342.07
2022-08-19T12:19:56.124Z,1338.13
2022-08-19T12:22:22.801Z,1371.53
2022-08-19T12:24:53.226Z,1611.05
2022-08-19T12:27:31.881Z,1488.10
2022-08-19T12:30:07.126Z,1393.45
2022-08-19T12:32:34.887Z,1469.85
2022-08-19T12:35:02.151Z,1409.03
2022-08-19T12:37:28.923Z,1533.97
2022-08-19T12:39:55.497Z,1529.45
2022-08-19T12:42:22.993Z,1451.38
2022-08-19T12:44:49.635Z,1443.88
2022-08-19T12:47:16.077Z,1389.82
2022-08-19T12:49:53.921Z,1549.68
2022-08-19T12:52:26.788Z,1352.20
2022-08-19T12:54:56.218Z,1462.28
2022-08-19T12:57:31.719Z,1468.20
2022-08-19T13:00:00.412Z,1327.88
2022-08-19T13:02:27.461Z,1305.25
2022-08-19T13:04:53.946Z,1247.70
2022-08-19T13:07:20.641Z,1331.70
2022-08-19T13:09:51.964Z,1345.55
2022-08-19T13:12:24.919Z,1196.47
2022-08-19T13:14:53.542Z,1352.57
2022-08-19T13:17:20.364Z,1245.47
2022-08-19T13:19:46.918Z,1330.97
2022-08-19T13:22:15.202Z,1112.85
2022-08-19T13:24:46.817Z,1049.55
2022-08-19T13:27:13.708Z,1218.13
2022-08-19T13:29:59.308Z,1093.60
2022-08-19T13:32:44.370Z,1299.93
2022-08-19T13:35:16.873Z,1283.43
2022-08-19T13:40:17.061Z,1321.68
2022-08-19T13:42:48.106Z,1126.45
2022-08-19T13:45:16.177Z,1244.20
2022-08-19T13:47:51.038Z,1134.72
2022-08-19T13:50:23.702Z,1235.55
2022-08-19T13:52:50.290Z,1110.10
2022-08-19T13:55:24.769Z,1267.63
2022-08-19T13:57:56.058Z,1285.55
2022-08-19T14:00:25.646Z,1206.22
2022-08-19T14:02:52.908Z,1224.18
2022-08-19T14:05:19.915Z,1394.55
2022-08-19T14:07:48.268Z,1318.85
2022-08-19T14:10:15.766Z,1167.75
2022-08-19T14:12:42.482Z,1274.15
2022-08-19T14:15:09.729Z,1248.97
2022-08-19T14:17:47.823Z,1094.00
2022-08-19T14:20:17.137Z,1161.07
2022-08-19T14:22:45.986Z,1127.47
2022-08-19T14:25:15.264Z,1069.10
2022-08-19T14:27:42.264Z,903.17
2022-08-19T14:30:10.369Z,1303.93
2022-08-19T14:32:37.052Z,1005.10
2022-08-19T14:35:04.234Z,1061.00
2022-08-19T14:37:31.032Z,1034.40
2022-08-19T14:39:57.894Z,990.65
2022-08-19T14:42:27.479Z,1026.78
2022-08-19T14:44:53.882Z,986.78
2022-08-19T14:47:20.334Z,1105.43
2022-08-19T14:49:49.499Z,969.42
2022-08-19T14:52:17.018Z,1089.15
2022-08-19T14:54:43.798Z,1186.95
2022-08-19T14:57:12.560Z,990.67
2022-08-19T14:59:39.776Z,903.10
2022-08-19T15:02:33.454Z,812.28
2022-08-19T15:04:58.319Z,1077.10
2022-08-19T15:07:28.977Z,950.13
2022-08-19T15:09:57.156Z,914.28
2022-08-19T15:12:23.746Z,925.58
2022-08-19T15:14:56.002Z,927.80
2022-08-19T15:17:45.018Z,1079.45
2022-08-19T15:20:11.048Z,927.20
2022-08-19T15:22:37.490Z,899.88
2022-08-19T15:25:06.562Z,874.03
2022-08-19T15:27:33.022Z,920.95
2022-08-19T15:30:01.369Z,1009.13
2022-08-19T15:32:29.023Z,932.83
2022-08-19T15:34:57.055Z,909.80
2022-08-19T15:37:24.089Z,939.72
2022-08-19T15:39:51.089Z,994.45
2022-08-19T15:42:18.392Z,1042.72
2022-08-19T15:44:56.869Z,1080.18
2022-08-19T15:47:28.956Z,1053.28
2022-08-19T15:50:01.679Z,1126.55
2022-08-19T15:52:28.074Z,936.22
2022-08-19T15:54:54.554Z,1127.85
2022-08-19T15:57:23.716Z,937.17
2022-08-19T16:00:08.791Z,1289.55
2022-08-19T16:02:56.629Z,1095.10
2022-08-19T16:05:43.269Z,1317.18
2022-08-19T16:08:10.021Z,1328.30
2022-08-19T16:10:40.300Z,1201.03
2022-08-19T16:13:06.989Z,1136.40
2022-08-19T16:15:34.284Z,1282.93
2022-08-19T16:18:04.706Z,1419.72
2022-08-19T16:20:31.649Z,1007.63
2022-08-19T16:22:59.782Z,1114.60
2022-08-19T16:25:27.769Z,1425.57
2022-08-19T16:28:07.052Z,1491.95
2022-08-19T16:30:34.686Z,1122.97
2022-08-19T16:33:01.142Z,1418.45
2022-08-19T16:35:27.822Z,1244.25
2022-08-19T16:37:54.442Z,1159.53
2022-08-19T16:40:21.078Z,1330.45
2022-08-19T16:42:47.582Z,1470.00
2022-08-19T16:45:13.991Z,1402.90
2022-08-19T16:47:41.206Z,1622.55
2022-08-19T16:50:07.940Z,1205.88
2022-08-19T16:52:34.902Z,1314.28
2022-08-19T16:55:01.362Z,1296.28
2022-08-19T16:57:27.869Z,1284.00
2022-08-19T16:59:56.026Z,1227.47
2022-08-19T17:02:23.493Z,1245.88
2022-08-19T17:04:57.547Z,1268.03
2022-08-19T17:07:27.050Z,1187.55
2022-08-19T17:09:53.464Z,1234.40
2022-08-19T17:12:21.757Z,1437.30
2022-08-19T17:14:48.185Z,1328.38
2022-08-19T17:17:14.784Z,1210.57
2022-08-19T17:19:43.425Z,1500.40
2022-08-19T17:22:11.313Z,1405.10
2022-08-19T17:24:38.157Z,1265.18
2022-08-19T17:27:07.690Z,1514.68
2022-08-19T17:29:34.287Z,1399.45
2022-08-19T17:32:01.869Z,1384.70
2022-08-19T17:34:28.307Z,1331.85
2022-08-19T17:36:57.105Z,1506.20
2022-08-19T17:39:25.313Z,1475.82
2022-08-19T17:41:51.739Z,1554.82
2022-08-19T17:44:18.918Z,1476.97
2022-08-19T17:46:46.655Z,1499.68
2022-08-19T17:49:13.399Z,1426.07
2022-08-19T17:51:42.398Z,1278.78
2022-08-19T17:54:18.613Z,1417.30
2022-08-19T17:56:46.219Z,1454.70
2022-08-19T17:59:13.796Z,1308.78
2022-08-19T18:01:53.358Z,1361.88
2022-08-19T18:04:21.218Z,1298.45
2022-08-19T18:06:53.657Z,1367.15
2022-08-19T18:09:23.938Z,1290.72
2022-08-19T18:11:52.687Z,1430.03
2022-08-19T18:14:19.982Z,1451.78
2022-08-19T18:16:46.807Z,1354.63
2022-08-19T18:19:16.184Z,1370.65
2022-08-19T18:21:42.618Z,1425.32
2022-08-19T18:24:09.041Z,1479.95
2022-08-19T18:26:35.519Z,1486.93
2022-08-19T18:29:03.266Z,1461.57
2022-08-19T18:31:30.041Z,1448.53
2022-08-19T18:33:57.018Z,1394.85
2022-08-19T18:36:52.002Z,1472.30
2022-08-19T18:39:29.580Z,1403.78
2022-08-19T18:42:16.904Z,1508.88
2022-08-19T18:45:01.731Z,1496.10
2022-08-19T18:47:47.066Z,1477.00
2022-08-19T18:50:13.898Z,1330.38
2022-08-19T18:52:40.696Z,1388.25
2022-08-19T18:55:07.837Z,1447.63
2022-08-19T18:57:34.279Z,1492.53
2022-08-19T19:00:02.534Z,1462.38
2022-08-19T19:02:29.212Z,1545.82
2022-08-19T19:04:56.165Z,1461.13
2022-08-19T19:07:23.372Z,1298.53
2022-08-19T19:09:52.644Z,1440.63
2022-08-19T19:12:19.153Z,1367.00
2022-08-19T19:14:49.425Z,1337.47
2022-08-19T19:17:16.588Z,1345.68
2022-08-19T19:19:44.032Z,1445.32
2022-08-19T19:22:17.051Z,1379.60
2022-08-19T19:27:13.960Z,1255.65
2022-08-19T19:29:40.962Z,1431.68
2022-08-19T19:32:08.834Z,1374.65
2022-08-19T19:34:37.424Z,1419.78
2022-08-19T19:37:05.772Z,1452.53
2022-08-19T19:39:46.184Z,1474.30
2022-08-19T19:42:20.434Z,1372.72
2022-08-19T19:44:48.826Z,1459.68
2022-08-19T19:47:18.777Z,1386.57
2022-08-19T19:50:10.550Z,1477.68
2022-08-19T19:52:32.770Z,1430.93
2022-08-19T19:54:59.192Z,1367.38
2022-08-19T19:57:26.957Z,1560.78
2022-08-19T19:59:54.340Z,1375.05
2022-08-19T20:02:22.086Z,1416.60
2022-08-19T20:04:49.713Z,1457.10
2022-08-19T20:07:16.245Z,1481.50
2022-08-19T20:09:59.193Z,1461.00
2022-08-19T20:14:52.478Z,1110.13
2022-08-19T20:17:20.547Z,1428.80
2022-08-19T20:19:47.756Z,1468.07
2022-08-19T20:22:14.460Z,1449.80
2022-08-19T20:24:42.627Z,1357.30
2022-08-19T20:27:09.566Z,1398.47
2022-08-19T20:29:38.749Z,1362.05
2022-08-19T20:32:07.065Z,1372.25
2022-08-19T20:34:33.868Z,1364.43
2022-08-19T20:37:00.371Z,1512.80
2022-08-19T20:39:26.976Z,1478.18
2022-08-19T20:41:53.452Z,1356.68
2022-08-19T20:44:19.899Z,1361.20
2022-08-19T20:46:55.323Z,1349.45
2022-08-19T20:49:27.112Z,1480.60
2022-08-19T20:51:54.560Z,1514.53
2022-08-19T20:54:21.155Z,1425.57
2022-08-19T20:56:47.601Z,1523.63
2022-08-19T20:59:14.042Z,1302.95
2022-08-19T21:01:40.677Z,1504.47
2022-08-19T21:04:09.920Z,1431.40
2022-08-19T21:06:37.030Z,1463.93
2022-08-19T21:09:04.524Z,1413.78
2022-08-19T21:11:32.397Z,1436.05
2022-08-19T21:13:59.171Z,1378.28
2022-08-19T21:16:28.293Z,1432.90
2022-08-19T21:18:54.769Z,1425.57
2022-08-19T21:21:21.217Z,1379.85
2022-08-19T21:23:49.590Z,1512.78
2022-08-19T21:26:16.280Z,1470.38
2022-08-19T21:28:42.861Z,1593.10
2022-08-19T21:31:10.543Z,1497.90
2022-08-19T21:33:37.164Z,1499.38
2022-08-19T21:36:04.057Z,1329.63
2022-08-19T21:38:32.873Z,1263.35
2022-08-19T21:40:59.346Z,1293.80
2022-08-19T21:43:32.601Z,1386.35
2022-08-19T21:45:59.081Z,1590.20
2022-08-19T21:48:25.488Z,1332.95
2022-08-19T21:50:52.411Z,1430.25
2022-08-19T21:53:19.144Z,1331.57
2022-08-19T21:55:53.187Z,1355.28
2022-08-19T21:58:28.272Z,1361.88
2022-08-19T22:00:57.752Z,1256.65
2022-08-19T22:03:26.393Z,1449.88
2022-08-19T22:05:53.358Z,1385.95
2022-08-19T22:08:20.063Z,1427.00
2022-08-19T22:10:46.802Z,1383.55
2022-08-19T22:13:13.685Z,1389.00
2022-08-19T22:15:41.114Z,1429.88
2022-08-19T22:18:07.611Z,1446.43
2022-08-19T22:20:34.335Z,1478.03
2022-08-19T22:23:02.236Z,1361.93
2022-08-19T22:25:32.746Z,1373.78
2022-08-19T22:28:02.057Z,1341.95
2022-08-19T22:30:33.558Z,1377.55
2022-08-19T22:33:02.143Z,1369.93
2022-08-19T22:35:31.946Z,1262.35
2022-08-19T22:37:58.985Z,1307.10
2022-08-19T22:40:26.531Z,1358.78
2022-08-19T22:43:00.177Z,1364.88
2022-08-19T22:45:27.218Z,1269.63
2022-08-19T22:47:53.844Z,1256.20
2022-08-19T22:50:20.626Z,1399.60
2022-08-19T22:52:51.672Z,1291.28
2022-08-19T22:55:18.963Z,1168.70
2022-08-19T22:57:45.550Z,1401.47
2022-08-19T23:00:13.464Z,1270.32
2022-08-19T23:02:51.792Z,1371.55
2022-08-19T23:05:21.843Z,1212.80
2022-08-19T23:07:52.707Z,1393.68
2022-08-19T23:10:26.538Z,1461.53
2022-08-19T23:12:55.504Z,1320.25
2022-08-19T23:15:25.919Z,1145.82
2022-08-19T23:17:54.055Z,1538.25
2022-08-19T23:20:21.122Z,1124.50
2022-08-19T23:22:50.354Z,1039.35
2022-08-19T23:25:21.397Z,1351.28
2022-08-19T23:28:07.018Z,1113.10
2022-08-19T23:30:34.730Z,1054.72
2022-08-19T23:33:07.667Z,1086.25
2022-08-19T23:35:37.099Z,1344.88
2022-08-19T23:38:04.240Z,1005.22
2022-08-19T23:40:30.739Z,1297.93
2022-08-19T23:42:58.315Z,1233.75
2022-08-19T23:45:25.599Z,1086.53
2022-08-19T23:47:53.300Z,1230.03
2022-08-19T23:50:20.254Z,1355.32
2022-08-19T23:52:48.009Z,956.47
2022-08-19T23:55:15.084Z,1268.20
2022-08-19T23:57:41.596Z,912.10
